Terminal Aerodrome Forecast
Issued by NWS Louisville, KY

Home | Current Version | Previous Version | Text Only | Print | Product List | Glossary On
Versions: 1 2 3 4 5 6 7 8 9 10 11 12 13 14 15 16 17 18 19 20 21
000
FTUS43 KLMK 192300
TAFSDF
TAF
KSDF 192322Z 2000/2106 10006KT P6SM FEW200
     FM200800 16004KT P6SM SCT040
     FM201500 20009KT P6SM SCT045
     FM210100 21004KT P6SM SCT250=

USA.gov is the U.S. government's official web portal to all federal, state and local government web resources and services.